Time;durP1;ratioP1;P1;durP2;ratioP2;P2;SDS_P1;SDS_P2;PMS_P1;PMS_P2;Temp;Humidity;BMP_temperature;BMP_pressure;BME280_temperature;BME280_humidity;BME280_pressure;Samples;Min_cycle;Max_cycle;Signal;HPM_P1;HPM_P2
2020/12/21 00:01:18;;;;;;;15.52;11.65;;;;;;;4.72;73.19;101403.50;5043185;28;20032;-72
2020/12/21 00:03:44;;;;;;;16.15;11.57;;;;;;;4.64;73.62;101398.84;5040200;28;20037;-72
2020/12/21 00:06:13;;;;;;;14.63;10.93;;;;;;;4.66;73.59;101400.69;5040521;28;20038;-71
2020/12/21 00:08:38;;;;;;;15.50;11.13;;;;;;;4.58;74.27;101399.53;5040765;28;20029;-72
2020/12/21 00:11:04;;;;;;;14.27;11.18;;;;;;;4.56;74.28;101406.47;5040365;28;20048;-71
2020/12/21 00:13:30;;;;;;;16.75;11.45;;;;;;;4.58;74.56;101396.94;5042760;28;20033;-72
2020/12/21 00:15:55;;;;;;;14.55;11.38;;;;;;;4.57;73.63;101403.00;5043863;28;20502;-72
2020/12/21 00:18:21;;;;;;;14.75;11.35;;;;;;;4.53;74.01;101408.97;5024423;28;20580;-72
2020/12/21 00:20:46;;;;;;;14.75;10.98;;;;;;;4.59;74.19;101414.41;5040214;28;20414;-72
2020/12/21 00:23:11;;;;;;;13.68;10.82;;;;;;;4.64;74.20;101398.84;5040100;28;20480;-71
2020/12/21 00:25:37;;;;;;;14.30;10.82;;;;;;;4.57;74.26;101403.91;5043523;28;20419;-72
2020/12/21 00:28:02;;;;;;;16.60;12.07;;;;;;;4.60;74.54;101405.72;5043591;28;20483;-71
2020/12/21 00:30:27;;;;;;;15.20;11.68;;;;;;;4.58;74.69;101404.78;5041130;28;20033;-71
2020/12/21 00:32:53;;;;;;;15.38;10.90;;;;;;;4.61;75.09;101407.47;5039818;28;20029;-72
2020/12/21 00:35:18;;;;;;;15.82;11.05;;;;;;;4.63;74.72;101418.88;5041122;28;20044;-72
2020/12/21 00:37:44;;;;;;;14.30;10.90;;;;;;;4.60;74.80;101408.34;5043324;28;20033;-71
2020/12/21 00:40:09;;;;;;;14.73;11.30;;;;;;;4.58;74.82;101412.63;5025408;28;20044;-72
2020/12/21 00:42:34;;;;;;;16.38;11.60;;;;;;;4.60;74.55;101413.56;5039653;28;20124;-71
2020/12/21 00:44:59;;;;;;;15.63;11.18;;;;;;;4.59;74.86;101417.91;5039677;28;20022;-72
2020/12/21 00:47:25;;;;;;;14.93;11.30;;;;;;;4.59;75.12;101412.69;5041918;28;20041;-72
2020/12/21 00:49:50;;;;;;;15.88;12.30;;;;;;;4.51;75.43;101414.16;5043201;28;20052;-72
2020/12/21 00:52:16;;;;;;;16.13;11.10;;;;;;;4.54;75.29;101416.00;5024293;28;20036;-72
2020/12/21 00:54:42;;;;;;;13.63;10.65;;;;;;;4.53;75.38;101411.56;5031130;28;20040;-71
2020/12/21 00:57:07;;;;;;;14.98;11.05;;;;;;;4.56;75.29;101417.81;5039311;28;20037;-72
2020/12/21 00:59:32;;;;;;;15.82;11.45;;;;;;;4.59;75.36;101414.41;5039748;28;20040;-71
2020/12/21 01:01:58;;;;;;;16.13;12.77;;;;;;;4.60;75.20;101416.19;5039603;28;20166;-72
2020/12/21 01:04:24;;;;;;;13.57;10.25;;;;;;;4.60;75.09;101413.56;5041096;28;20029;-72
2020/12/21 01:06:56;;;;;;;15.10;10.73;;;;;;;4.64;75.47;101415.44;5042976;28;20415;-72
2020/12/21 01:09:21;;;;;;;14.23;10.57;;;;;;;4.60;75.58;101418.78;5041293;28;20465;-72
2020/12/21 01:11:46;;;;;;;17.10;12.32;;;;;;;4.58;76.16;101417.84;5039526;28;20038;-72
2020/12/21 01:14:12;;;;;;;14.40;11.30;;;;;;;4.57;75.85;101416.09;5039385;28;20039;-72
2020/12/21 01:16:37;;;;;;;16.27;11.95;;;;;;;4.53;75.85;101422.03;5042894;28;20040;-72
2020/12/21 01:19:03;;;;;;;14.13;10.65;;;;;;;4.57;75.97;101418.69;5025019;28;20123;-72
2020/12/21 01:21:30;;;;;;;15.13;10.90;;;;;;;4.63;75.75;101416.28;5044699;28;20035;-72
2020/12/21 01:23:56;;;;;;;14.68;11.27;;;;;;;4.62;75.66;101411.91;5042416;28;20058;-72
2020/12/21 01:26:23;;;;;;;14.32;11.27;;;;;;;4.57;76.20;101418.69;5007091;28;20041;-72
2020/12/21 01:28:48;;;;;;;14.63;10.40;;;;;;;4.58;75.89;101417.84;5039279;28;20033;-72
2020/12/21 01:31:14;;;;;;;14.90;11.32;;;;;;;4.56;76.14;101427.41;5039732;28;20038;-72
2020/12/21 01:33:40;;;;;;;16.60;11.02;;;;;;;4.59;75.80;101425.75;5042429;28;20040;-72
2020/12/21 01:36:05;;;;;;;17.50;12.65;;;;;;;4.50;76.49;101421.94;5042579;28;20402;-72
2020/12/21 01:38:30;;;;;;;15.15;11.40;;;;;;;4.51;76.12;101421.13;5040262;28;20555;-71
2020/12/21 01:40:56;;;;;;;14.43;10.95;;;;;;;4.49;76.40;101422.78;5039254;28;20491;-71
2020/12/21 01:43:21;;;;;;;15.95;11.32;;;;;;;4.48;76.21;101423.59;5040336;28;20034;-72
2020/12/21 01:45:46;;;;;;;14.63;10.60;;;;;;;4.47;76.44;101427.97;5042638;28;20067;-71
2020/12/21 01:48:12;;;;;;;15.10;11.52;;;;;;;4.48;76.51;101431.44;5042452;28;20491;-71
2020/12/21 01:50:38;;;;;;;14.27;10.43;;;;;;;4.47;76.27;101432.31;5039119;28;20029;-71
2020/12/21 01:53:07;;;;;;;15.30;11.30;;;;;;;4.46;76.62;101430.53;5038705;28;20056;-71
2020/12/21 01:55:34;;;;;;;15.25;12.13;;;;;;;4.48;76.46;101421.91;5042176;28;20044;-72
2020/12/21 01:58:00;;;;;;;16.80;11.40;;;;;;;4.46;76.01;101420.09;5045555;28;20123;-72
2020/12/21 02:00:28;;;;;;;17.17;12.23;;;;;;;4.45;76.22;101420.91;5044213;28;20080;-71
2020/12/21 02:02:55;;;;;;;16.75;12.20;;;;;;;4.47;76.45;101416.63;5042592;28;20104;-71
2020/12/21 02:05:20;;;;;;;13.95;10.27;;;;;;;4.46;76.62;101417.47;5044196;28;20151;-72
2020/12/21 02:07:46;;;;;;;15.27;11.52;;;;;;;4.48;76.27;101407.94;5046168;28;20037;-71
2020/12/21 02:10:12;;;;;;;15.25;11.38;;;;;;;4.51;76.32;101406.31;5045972;28;20029;-71
2020/12/21 02:12:38;;;;;;;16.38;11.82;;;;;;;4.52;76.45;101409.81;5016852;28;20030;-71
2020/12/21 02:15:03;;;;;;;18.50;12.10;;;;;;;4.53;76.50;101408.97;5041623;28;20526;-71
2020/12/21 02:17:28;;;;;;;15.95;11.35;;;;;;;4.52;76.06;101405.47;5043538;28;20503;-72
2020/12/21 02:19:53;;;;;;;15.90;11.43;;;;;;;4.47;76.38;101411.41;5042559;28;20030;-71
2020/12/21 02:22:19;;;;;;;16.40;11.45;;;;;;;4.46;76.12;101413.13;5043359;28;20110;-71
2020/12/21 02:24:44;;;;;;;17.20;12.20;;;;;;;4.48;76.41;101410.53;5045873;28;20044;-72
2020/12/21 02:27:10;;;;;;;13.68;10.70;;;;;;;4.52;76.29;101410.69;5045877;28;20102;-72
2020/12/21 02:29:35;;;;;;;14.18;11.43;;;;;;;4.57;76.22;101416.09;5042339;28;20022;-72
2020/12/21 02:32:00;;;;;;;14.25;10.27;;;;;;;4.64;76.24;101420.69;5042286;28;20029;-70
2020/12/21 02:34:27;;;;;;;15.90;11.75;;;;;;;4.68;75.73;101419.91;5044173;28;20416;-72
2020/12/21 02:36:55;;;;;;;15.90;12.60;;;;;;;4.67;76.25;101419.88;5045680;28;20090;-71
2020/12/21 02:39:22;;;;;;;15.18;10.77;;;;;;;4.70;75.89;101425.22;5044097;28;20484;-72
2020/12/21 02:41:47;;;;;;;17.98;12.05;;;;;;;4.75;76.11;101428.88;5024502;28;20029;-71
2020/12/21 02:44:13;;;;;;;14.63;10.70;;;;;;;4.80;75.71;101425.56;5042121;28;20037;-72
2020/12/21 02:46:42;;;;;;;15.23;11.27;;;;;;;4.83;75.35;101425.66;5027745;28;20039;-70
2020/12/21 02:49:07;;;;;;;15.68;11.95;;;;;;;4.84;75.77;101427.41;5045322;28;20037;-71
2020/12/21 02:51:32;;;;;;;14.55;10.95;;;;;;;4.87;76.06;101434.47;5042423;28;20381;-72
2020/12/21 02:53:58;;;;;;;16.38;11.73;;;;;;;4.92;75.58;101416.31;5041700;28;20450;-71
2020/12/21 02:56:23;;;;;;;16.48;12.27;;;;;;;4.87;75.71;101412.66;5043561;28;20033;-71
2020/12/21 02:58:48;;;;;;;16.48;12.40;;;;;;;4.82;75.85;101416.03;5045231;28;20044;-71
2020/12/21 03:01:14;;;;;;;14.70;11.48;;;;;;;4.86;76.05;101419.63;5044608;28;20033;-71
2020/12/21 03:03:39;;;;;;;16.38;11.50;;;;;;;4.81;75.90;101422.09;5041467;28;20092;-72
2020/12/21 03:06:04;;;;;;;17.70;13.27;;;;;;;4.78;75.89;101429.84;5041704;28;20535;-71
2020/12/21 03:08:29;;;;;;;16.75;12.02;;;;;;;4.79;76.20;101430.72;5044237;28;20522;-72
2020/12/21 03:10:55;;;;;;;16.08;11.60;;;;;;;4.83;75.83;101424.75;5043431;28;20029;-71
2020/12/21 03:13:21;;;;;;;16.38;12.43;;;;;;;4.68;76.14;101425.16;5043644;28;20029;-71
2020/12/21 03:15:46;;;;;;;19.05;13.05;;;;;;;4.72;76.16;101429.66;5044994;28;20499;-71
2020/12/21 03:18:11;;;;;;;15.73;12.00;;;;;;;4.81;76.25;101422.09;5044768;28;20036;-71
2020/12/21 03:20:37;;;;;;;15.60;12.32;;;;;;;4.86;76.26;101416.13;5041413;28;20144;-72
2020/12/21 03:23:02;;;;;;;15.70;11.82;;;;;;;4.94;76.05;101412.00;5041091;28;20048;-72
2020/12/21 03:25:27;;;;;;;16.35;12.35;;;;;;;4.97;75.67;101410.38;5043701;28;20040;-72
2020/12/21 03:27:53;;;;;;;16.40;12.02;;;;;;;4.93;75.46;101418.97;5027137;28;20059;-72
2020/12/21 03:30:18;;;;;;;19.02;12.85;;;;;;;4.94;76.30;101417.25;5043623;28;20037;-71
2020/12/21 03:32:43;;;;;;;17.17;12.27;;;;;;;4.99;75.92;101420.88;5040758;28;20041;-71
2020/12/21 03:35:09;;;;;;;14.88;11.43;;;;;;;5.02;75.29;101418.38;5051849;28;20067;-71
2020/12/21 03:37:35;;;;;;;16.73;12.68;;;;;;;4.99;75.68;101419.16;5049033;28;20037;-72
2020/12/21 03:40:03;;;;;;;15.18;11.32;;;;;;;5.03;75.60;101421.03;5050111;28;20043;-72
2020/12/21 03:42:28;;;;;;;18.10;13.02;;;;;;;5.02;75.72;101424.47;5053422;28;20120;-71
2020/12/21 03:44:54;;;;;;;20.48;13.50;;;;;;;4.96;76.17;101426.03;5041023;28;20160;-71
2020/12/21 03:47:19;;;;;;;16.90;12.63;;;;;;;4.87;75.59;101433.59;5042107;28;20128;-72
2020/12/21 03:49:45;;;;;;;18.85;13.18;;;;;;;4.75;76.00;101423.63;5044313;28;20033;-72
2020/12/21 03:52:10;;;;;;;17.45;13.13;;;;;;;4.70;76.79;101428.72;5059255;28;20029;-72
2020/12/21 03:54:35;;;;;;;18.00;14.00;;;;;;;4.76;76.33;101426.28;5034497;28;20090;-72
2020/12/21 03:57:00;;;;;;;16.83;12.70;;;;;;;4.83;76.24;101430.00;5044243;28;20573;-72
2020/12/21 03:59:26;;;;;;;17.10;14.18;;;;;;;4.87;76.57;101416.16;5041774;28;20077;-72
2020/12/21 04:01:51;;;;;;;18.70;13.32;;;;;;;4.91;76.00;101425.88;5040695;28;20415;-72
2020/12/21 04:04:17;;;;;;;18.58;13.35;;;;;;;4.88;76.46;101424.91;5046914;28;20033;-71
2020/12/21 04:06:42;;;;;;;20.20;13.75;;;;;;;4.93;76.65;101429.44;5047776;28;20037;-72
2020/12/21 04:09:07;;;;;;;17.65;12.48;;;;;;;4.94;76.15;101420.75;5040366;28;20040;-72
2020/12/21 04:11:33;;;;;;;16.33;12.77;;;;;;;4.99;76.13;101427.00;5043452;28;20040;-71
2020/12/21 04:13:58;;;;;;;15.82;11.55;;;;;;;5.05;75.90;101424.56;5043573;28;20036;-72
2020/12/21 04:16:23;;;;;;;16.75;12.63;;;;;;;5.05;76.21;101421.06;5042052;28;20071;-72
2020/12/21 04:18:48;;;;;;;18.30;12.57;;;;;;;5.05;76.50;101428.91;5039969;28;20037;-72
2020/12/21 04:21:14;;;;;;;18.48;13.73;;;;;;;5.00;76.62;101431.41;5019429;28;20044;-72
2020/12/21 04:23:40;;;;;;;18.70;12.80;;;;;;;4.97;76.50;101436.53;5039854;28;20033;-71
2020/12/21 04:26:07;;;;;;;18.05;13.35;;;;;;;4.88;76.33;101436.25;5040174;28;20033;-72
2020/12/21 04:28:33;;;;;;;15.93;12.48;;;;;;;4.83;76.74;101432.59;5043013;28;20048;-71
2020/12/21 04:31:02;;;;;;;16.42;11.85;;;;;;;4.75;76.47;101424.50;5043634;28;20032;-72
2020/12/21 04:33:28;;;;;;;17.67;12.23;;;;;;;4.71;76.49;101426.97;5040824;28;20048;-72
2020/12/21 04:35:53;;;;;;;19.05;13.82;;;;;;;4.58;77.23;101423.06;5040019;28;20041;-72
2020/12/21 04:38:18;;;;;;;19.73;14.10;;;;;;;4.48;77.08;101418.38;5040955;28;20069;-72
2020/12/21 04:40:54;;;;;;;17.58;12.70;;;;;;;4.39;77.44;101422.47;5043530;28;20098;-72
2020/12/21 04:43:19;;;;;;;18.40;12.65;;;;;;;4.35;77.53;101428.47;5042018;28;20037;-72
2020/12/21 04:45:45;;;;;;;17.13;12.40;;;;;;;4.37;77.36;101431.09;5039937;28;20087;-72
2020/12/21 04:48:15;;;;;;;19.77;13.68;;;;;;;4.38;77.79;101422.44;5039890;28;20040;-72
2020/12/21 04:50:40;;;;;;;20.38;13.93;;;;;;;4.37;77.21;101429.38;5039775;28;20467;-72
2020/12/21 04:53:08;;;;;;;21.05;14.75;;;;;;;4.26;77.19;101428.13;5039440;28;20045;-72
2020/12/21 04:55:33;;;;;;;17.08;12.82;;;;;;;4.17;77.12;101427.84;5042798;28;20045;-72
2020/12/21 04:57:59;;;;;;;18.38;12.43;;;;;;;4.07;77.41;101421.41;5043137;28;20040;-72
2020/12/21 05:00:27;;;;;;;17.15;11.95;;;;;;;4.00;77.63;101427.22;5040982;28;20392;-72
2020/12/21 05:02:52;;;;;;;19.17;13.38;;;;;;;3.90;77.56;101427.75;5039384;28;20033;-72
2020/12/21 05:05:47;;;;;;;22.63;15.73;;;;;;;3.74;78.08;101418.47;5040588;28;20044;-71
2020/12/21 05:08:23;;;;;;;31.27;20.75;;;;;;;3.68;78.23;101426.09;5026394;28;20107;-71
2020/12/21 05:10:59;;;;;;;22.85;16.13;;;;;;;3.64;78.84;101429.41;5039628;28;20065;-71
2020/12/21 05:13:28;;;;;;;19.77;13.80;;;;;;;3.63;78.43;101432.88;5040910;28;20483;-72
2020/12/21 05:15:55;;;;;;;18.52;12.98;;;;;;;3.66;78.92;101436.47;5042794;28;20040;-71
2020/12/21 05:18:25;;;;;;;22.02;14.40;;;;;;;3.74;79.28;101432.41;5048309;28;20029;-72
2020/12/21 05:21:05;;;;;;;21.85;13.95;;;;;;;3.81;78.97;101433.53;5015590;28;20109;-72
2020/12/21 05:23:31;;;;;;;24.60;15.07;;;;;;;3.87;78.81;101420.69;5039093;28;20037;-72
2020/12/21 05:26:04;;;;;;;18.63;12.48;;;;;;;3.89;78.27;101411.19;5039450;28;20488;-71
2020/12/21 05:28:33;;;;;;;16.23;11.73;;;;;;;3.88;78.61;101412.03;5041767;28;20036;-71
2020/12/21 05:31:04;;;;;;;15.65;10.90;;;;;;;3.84;78.38;101411.88;5042825;28;20119;-71
2020/12/21 05:33:30;;;;;;;16.52;11.32;;;;;;;3.78;78.31;101403.84;5043997;28;20483;-72
2020/12/21 05:36:15;;;;;;;18.30;11.30;;;;;;;3.67;78.32;101406.94;5043418;28;20033;-71
2020/12/21 05:38:41;;;;;;;14.98;10.30;;;;;;;3.63;78.73;101404.16;5043261;28;20026;-71
2020/12/21 05:41:13;;;;;;;16.48;12.30;;;;;;;3.61;78.86;101418.88;5043393;28;20040;-72
2020/12/21 05:43:40;;;;;;;17.48;11.55;;;;;;;3.55;78.38;101411.72;5025156;28;20044;-72
2020/12/21 05:46:14;;;;;;;15.02;10.07;;;;;;;3.39;78.68;101412.88;5043289;28;20474;-71
2020/12/21 05:48:48;;;;;;;19.15;11.52;;;;;;;3.25;78.31;101406.28;5043167;28;20729;-72
2020/12/21 05:51:22;;;;;;;16.80;11.52;;;;;;;3.10;79.15;101413.50;5043438;28;20568;-71
2020/12/21 05:53:50;;;;;;;18.52;12.23;;;;;;;3.00;78.97;101430.50;5028499;28;20033;-71
2020/12/21 05:56:16;;;;;;;17.30;11.68;;;;;;;2.98;79.66;101435.66;5047063;28;20043;-73
2020/12/21 05:58:42;;;;;;;17.90;12.73;;;;;;;3.02;80.26;101432.34;5041611;28;20029;-72
2020/12/21 06:01:12;;;;;;;22.85;14.00;;;;;;;3.07;80.36;101436.03;5049268;28;20037;-73
2020/12/21 06:03:42;;;;;;;20.75;13.05;;;;;;;3.18;80.74;101440.78;5053905;28;20044;-73
2020/12/21 06:06:12;;;;;;;19.70;12.90;;;;;;;3.29;80.29;101436.84;5041565;28;20032;-72
2020/12/21 06:08:39;;;;;;;20.90;13.18;;;;;;;3.38;80.24;101442.44;5041663;28;20029;-72
2020/12/21 06:11:13;;;;;;;18.63;12.02;;;;;;;3.44;80.05;101434.81;5042786;28;20041;-72
2020/12/21 06:13:47;;;;;;;16.65;11.65;;;;;;;3.47;79.76;101436.66;5042455;28;20038;-69
2020/12/21 06:16:16;;;;;;;19.48;13.07;;;;;;;3.47;79.59;101432.31;5042873;28;20041;-69
2020/12/21 06:18:41;;;;;;;18.40;12.60;;;;;;;3.47;79.47;101432.31;5045963;28;20043;-69
2020/12/21 06:21:07;;;;;;;18.83;12.07;;;;;;;3.45;79.46;101425.25;5046051;28;20032;-70
2020/12/21 06:23:37;;;;;;;20.17;12.13;;;;;;;3.44;79.50;101426.97;5042767;28;20037;-69
2020/12/21 06:26:12;;;;;;;23.23;15.77;;;;;;;3.40;79.41;101424.19;5042682;28;20044;-70
2020/12/21 06:28:39;;;;;;;17.83;11.98;;;;;;;3.31;79.25;101429.97;5042426;28;20033;-69
2020/12/21 06:31:14;;;;;;;17.25;11.57;;;;;;;3.21;79.36;101433.06;5042449;28;20069;-69
2020/12/21 06:33:41;;;;;;;22.58;13.80;;;;;;;3.06;80.22;101439.44;5041963;28;20112;-69
2020/12/21 06:36:06;;;;;;;22.95;13.98;;;;;;;2.91;80.30;101451.91;5042270;28;20037;-70
2020/12/21 06:38:49;;;;;;;21.25;14.05;;;;;;;2.63;80.56;101450.78;5044953;28;20510;-68
2020/12/21 06:41:22;;;;;;;18.58;12.52;;;;;;;2.53;81.00;101448.63;5045232;28;20029;-69
2020/12/21 06:43:58;;;;;;;19.17;12.20;;;;;;;2.48;81.32;101447.56;5041415;28;20048;-69
2020/12/21 06:46:25;;;;;;;17.83;12.52;;;;;;;2.48;81.37;101457.97;5043374;28;20124;-72
2020/12/21 06:49:04;;;;;;;21.77;13.90;;;;;;;2.47;81.81;101450.13;5032936;28;20036;-70
2020/12/21 06:51:29;;;;;;;21.80;14.02;;;;;;;2.46;81.99;101454.41;5054311;28;20629;-70
2020/12/21 06:54:00;;;;;;;22.90;14.27;;;;;;;2.44;81.71;101458.69;5054588;28;20024;-69
2020/12/21 06:56:26;;;;;;;22.95;14.05;;;;;;;2.39;81.64;101465.44;5057006;28;20043;-69
2020/12/21 06:58:56;;;;;;;21.83;14.20;;;;;;;2.32;81.83;101458.16;5050317;28;20037;-70
2020/12/21 07:01:26;;;;;;;20.17;13.48;;;;;;;2.26;81.78;101460.53;5021993;28;20523;-70
2020/12/21 07:03:53;;;;;;;22.17;14.25;;;;;;;2.22;81.98;101458.59;5041471;28;20040;-69
2020/12/21 07:06:18;;;;;;;23.98;14.63;;;;;;;2.19;82.41;101462.84;5047627;28;20036;-70
2020/12/21 07:08:44;;;;;;;19.95;13.07;;;;;;;2.17;82.19;101455.78;5058289;28;20089;-70
2020/12/21 07:11:18;;;;;;;19.00;12.65;;;;;;;2.13;82.11;101464.31;5044429;28;20103;-69
2020/12/21 07:13:44;;;;;;;20.20;13.27;;;;;;;2.10;81.75;101465.06;5045501;28;20049;-69
2020/12/21 07:16:10;;;;;;;21.55;13.13;;;;;;;2.10;81.59;101472.00;5057049;28;20029;-70
2020/12/21 07:18:36;;;;;;;22.77;14.38;;;;;;;2.09;81.87;101473.69;5023714;28;20094;-69
2020/12/21 07:21:06;;;;;;;20.55;13.38;;;;;;;2.11;81.73;101472.06;5041488;28;20108;-70
2020/12/21 07:23:31;;;;;;;22.40;14.57;;;;;;;2.18;82.43;101476.72;5043894;28;20048;-69
2020/12/21 07:25:56;;;;;;;22.17;14.40;;;;;;;2.21;82.25;101485.47;5041416;28;20045;-70
2020/12/21 07:28:26;;;;;;;22.02;14.50;;;;;;;2.22;82.04;101484.66;5042966;28;20033;-69
2020/12/21 07:30:52;;;;;;;22.33;13.35;;;;;;;2.24;81.92;101483.00;5044750;28;20033;-69
2020/12/21 07:33:17;;;;;;;21.25;14.13;;;;;;;2.25;82.43;101479.56;5025667;28;20435;-69
2020/12/21 07:35:44;;;;;;;20.45;13.38;;;;;;;2.27;81.58;101483.13;5041195;28;20423;-70
2020/12/21 07:38:13;;;;;;;24.83;14.77;;;;;;;2.26;81.69;101486.56;5041132;28;20038;-69
2020/12/21 07:40:42;;;;;;;24.88;17.52;;;;;;;2.23;81.44;101486.41;5041103;28;20041;-70
2020/12/21 07:43:16;;;;;;;27.73;17.83;;;;;;;2.19;81.56;101491.50;5040775;28;20049;-69
2020/12/21 07:45:43;;;;;;;22.92;14.80;;;;;;;2.13;82.03;101485.16;5041050;28;20061;-69
2020/12/21 07:48:09;;;;;;;22.63;14.80;;;;;;;2.10;81.48;101485.91;5041048;28;20369;-70
2020/12/21 07:50:35;;;;;;;24.13;16.38;;;;;;;2.09;82.42;101491.91;5044379;28;20067;-70
2020/12/21 07:53:02;;;;;;;21.25;12.63;;;;;;;2.10;82.01;101491.13;5044033;28;20051;-70
2020/12/21 07:55:27;;;;;;;19.67;12.70;;;;;;;2.06;81.99;101499.59;5041190;28;20037;-70
2020/12/21 07:57:53;;;;;;;19.75;13.38;;;;;;;2.08;81.96;101491.88;5044930;28;20400;-71
2020/12/21 08:00:18;;;;;;;20.08;14.07;;;;;;;2.09;82.11;101494.53;5050699;28;20063;-70
2020/12/21 08:02:49;;;;;;;22.85;13.55;;;;;;;2.11;81.78;101484.19;5053091;28;20064;-69
2020/12/21 08:05:19;;;;;;;20.55;12.48;;;;;;;2.13;82.66;101491.25;5049701;28;20029;-69
2020/12/21 08:07:44;;;;;;;19.58;12.15;;;;;;;2.18;82.11;101497.53;5052881;28;20052;-72
2020/12/21 08:10:12;;;;;;;23.00;13.02;;;;;;;2.24;82.42;101503.84;5057744;28;20029;-70
2020/12/21 08:12:38;;;;;;;19.60;13.75;;;;;;;2.25;82.66;101506.50;5040167;28;20519;-69
2020/12/21 08:15:06;;;;;;;18.98;12.88;;;;;;;2.29;82.23;101498.00;5040197;28;20033;-69
2020/12/21 08:17:32;;;;;;;20.05;13.65;;;;;;;2.32;82.19;101499.84;5043078;28;20502;-69
2020/12/21 08:20:03;;;;;;;22.25;14.27;;;;;;;2.33;82.02;101499.00;5043690;28;20032;-69
2020/12/21 08:22:29;;;;;;;22.38;14.68;;;;;;;2.28;82.32;101493.63;5040971;28;20086;-69
2020/12/21 08:25:09;;;;;;;23.33;13.48;;;;;;;2.27;82.82;101498.75;5040174;28;20511;-69
2020/12/21 08:27:41;;;;;;;22.02;14.07;;;;;;;2.30;82.74;101499.78;5043354;28;20039;-69
2020/12/21 08:30:17;;;;;;;23.98;13.80;;;;;;;2.32;82.82;101503.34;5043545;28;20041;-69
2020/12/21 08:32:43;;;;;;;19.38;13.15;;;;;;;2.35;82.70;101506.06;5039780;28;20033;-69
2020/12/21 08:35:09;;;;;;;22.13;14.32;;;;;;;2.45;82.96;101511.69;5040378;28;20040;-69
2020/12/21 08:37:36;;;;;;;22.92;15.40;;;;;;;2.55;82.66;101512.13;5043081;28;20032;-70
2020/12/21 08:40:15;;;;;;;22.25;14.23;;;;;;;2.68;82.51;101512.66;5043253;28;20063;-69
2020/12/21 08:42:41;;;;;;;26.98;13.30;;;;;;;2.83;82.24;101513.28;5021903;28;20045;-69
2020/12/21 08:45:08;;;;;;;22.98;14.70;;;;;;;2.95;81.78;101513.78;5039916;28;20903;-70
2020/12/21 08:47:34;;;;;;;25.83;14.75;;;;;;;3.05;81.86;101510.72;5042854;28;20042;-69
2020/12/21 08:50:02;;;;;;;21.65;14.57;;;;;;;3.08;81.46;101516.03;5043211;28;20082;-69
2020/12/21 08:52:27;;;;;;;20.17;14.35;;;;;;;3.11;81.41;101517.88;5040665;28;20036;-70
2020/12/21 08:54:53;;;;;;;20.13;13.60;;;;;;;3.11;81.19;101515.28;5039768;28;20488;-70
2020/12/21 08:57:18;;;;;;;20.65;14.10;;;;;;;3.10;81.18;101517.84;5040597;28;20033;-69
2020/12/21 08:59:43;;;;;;;21.27;13.02;;;;;;;3.16;81.41;101515.47;5042799;28;20033;-70
2020/12/21 09:02:09;;;;;;;22.80;13.55;;;;;;;3.22;81.05;101508.78;5042776;28;20060;-70
2020/12/21 09:04:34;;;;;;;20.38;13.55;;;;;;;3.25;81.51;101513.22;5022105;28;20033;-69
2020/12/21 09:07:00;;;;;;;21.67;14.45;;;;;;;3.30;81.10;101509.06;5039328;28;20060;-70
2020/12/21 09:09:25;;;;;;;20.20;13.23;;;;;;;3.38;81.04;101509.34;5041426;28;20646;-73
2020/12/21 09:11:54;;;;;;;20.42;13.32;;;;;;;3.44;81.21;101505.28;5042923;28;20060;-72
2020/12/21 09:14:24;;;;;;;21.52;14.95;;;;;;;3.50;81.00;101507.22;5039111;28;20044;-70
2020/12/21 09:16:50;;;;;;;20.15;13.65;;;;;;;3.55;81.19;101502.19;5043138;28;20033;-70
2020/12/21 09:19:15;;;;;;;19.30;13.60;;;;;;;3.58;80.64;101510.13;5043454;28;20048;-69
2020/12/21 09:21:41;;;;;;;20.35;13.20;;;;;;;3.62;80.55;101514.66;5043664;28;20391;-70
2020/12/21 09:24:07;;;;;;;23.35;14.45;;;;;;;3.68;80.39;101509.66;5041897;28;20041;-69
2020/12/21 09:26:32;;;;;;;21.00;13.70;;;;;;;3.75;80.43;101511.66;5022695;28;20145;-70
2020/12/21 09:28:58;;;;;;;21.33;13.93;;;;;;;3.83;80.66;101514.56;5039378;28;20426;-70
2020/12/21 09:31:24;;;;;;;26.58;17.27;;;;;;;3.90;80.12;101506.09;5042816;28;20045;-70
2020/12/21 09:33:50;;;;;;;26.25;16.15;;;;;;;3.97;80.33;101496.78;5042489;28;20094;-71
2020/12/21 09:36:17;;;;;;;23.13;15.20;;;;;;;4.04;80.08;101497.06;5024352;28;20124;-69
2020/12/21 09:38:44;;;;;;;23.77;15.27;;;;;;;4.08;80.44;101492.81;5039180;28;20042;-69
2020/12/21 09:41:16;;;;;;;21.17;13.60;;;;;;;4.18;80.70;101487.97;5040462;28;20476;-70
2020/12/21 09:43:42;;;;;;;21.37;13.23;;;;;;;4.29;79.96;101490.06;5047058;28;20036;-69
2020/12/21 09:46:08;;;;;;;25.50;17.92;;;;;;;4.45;79.87;101501.94;5042472;28;20506;-69
2020/12/21 09:48:33;;;;;;;22.38;14.40;;;;;;;4.55;79.67;101497.06;5039654;28;20036;-70
2020/12/21 09:50:58;;;;;;;19.48;12.68;;;;;;;4.66;79.50;101492.19;5041154;28;20033;-70
2020/12/21 09:53:24;;;;;;;21.55;13.30;;;;;;;4.75;79.22;101497.75;5043624;28;20044;-69
2020/12/21 09:55:49;;;;;;;21.98;13.55;;;;;;;4.87;79.02;101496.34;5044161;28;20036;-69
2020/12/21 09:58:14;;;;;;;19.25;13.15;;;;;;;4.96;78.38;101492.31;5042292;28;20033;-70
2020/12/21 10:00:40;;;;;;;23.48;13.18;;;;;;;5.03;78.57;101483.84;5042355;28;20047;-69
2020/12/21 10:03:05;;;;;;;19.63;11.98;;;;;;;5.12;78.26;101478.00;5042158;28;20029;-70
2020/12/21 10:05:30;;;;;;;21.67;14.40;;;;;;;5.20;77.85;101476.50;5040274;28;20529;-70
2020/12/21 10:07:56;;;;;;;18.00;12.55;;;;;;;5.22;77.61;101468.72;5038893;28;20431;-70
2020/12/21 10:10:21;;;;;;;21.15;13.45;;;;;;;5.23;76.97;101471.34;5040176;28;20048;-70
2020/12/21 10:12:46;;;;;;;20.02;13.88;;;;;;;5.27;77.03;101475.84;5042165;28;20040;-70
2020/12/21 10:15:12;;;;;;;19.40;13.13;;;;;;;5.24;76.96;101470.53;5042492;28;20447;-70
2020/12/21 10:17:37;;;;;;;19.75;13.05;;;;;;;5.28;77.14;101467.16;5040090;28;20033;-71
2020/12/21 10:20:04;;;;;;;18.90;12.73;;;;;;;5.32;77.25;101462.00;5042846;28;20033;-70
2020/12/21 10:22:30;;;;;;;18.25;12.05;;;;;;;5.34;77.06;101465.56;5044750;28;20447;-70
2020/12/21 10:24:56;;;;;;;17.98;12.48;;;;;;;5.40;76.97;101457.91;5045256;28;20037;-69
2020/12/21 10:27:21;;;;;;;21.52;14.25;;;;;;;5.46;77.03;101453.72;5048612;28;20494;-71
2020/12/21 10:29:48;;;;;;;16.67;11.60;;;;;;;5.49;77.13;101447.69;5057033;28;20037;-70
2020/12/21 10:32:13;;;;;;;16.67;11.25;;;;;;;5.54;76.97;101448.72;5048191;28;20075;-69
2020/12/21 10:34:38;;;;;;;18.17;11.50;;;;;;;5.60;76.94;101443.63;5050772;28;20061;-71
2020/12/21 10:37:04;;;;;;;16.05;12.18;;;;;;;5.65;76.56;101436.81;5059148;28;20642;-70
2020/12/21 10:39:29;;;;;;;18.13;12.50;;;;;;;5.74;76.36;101441.44;5043273;28;20033;-69
2020/12/21 10:41:54;;;;;;;17.23;11.13;;;;;;;5.81;76.73;101440.75;5042269;28;20067;-70
2020/12/21 10:44:20;;;;;;;16.08;11.00;;;;;;;5.90;76.73;101437.50;5042902;28;20041;-70
2020/12/21 10:46:45;;;;;;;18.75;12.20;;;;;;;5.97;76.42;101418.50;5045554;28;20051;-71
2020/12/21 10:49:10;;;;;;;17.15;11.23;;;;;;;6.07;76.22;101424.88;5047059;28;20112;-71
2020/12/21 10:51:36;;;;;;;17.48;11.80;;;;;;;6.15;76.10;101425.97;5054616;28;20068;-69
2020/12/21 10:54:02;;;;;;;17.15;11.13;;;;;;;6.18;75.31;101430.41;5054818;28;20483;-69
2020/12/21 10:56:28;;;;;;;16.92;11.48;;;;;;;6.27;75.63;101420.16;5059285;28;20387;-69
2020/12/21 10:58:55;;;;;;;18.30;11.88;;;;;;;6.26;75.05;101421.91;5025445;28;20095;-70
2020/12/21 11:01:21;;;;;;;19.83;12.75;;;;;;;6.33;74.65;101425.56;5040972;28;20060;-70
2020/12/21 11:03:47;;;;;;;18.23;12.18;;;;;;;6.36;74.77;101412.53;5043677;28;20103;-69
2020/12/21 11:06:22;;;;;;;19.10;12.55;;;;;;;6.40;74.59;101409.13;5057377;28;20063;-70
2020/12/21 11:08:48;;;;;;;18.88;12.27;;;;;;;6.54;74.34;101399.84;5044013;28;20029;-70
2020/12/21 11:11:13;;;;;;;22.42;14.10;;;;;;;6.65;73.97;101399.22;5060480;28;20032;-69
2020/12/21 11:13:41;;;;;;;18.48;11.95;;;;;;;6.75;73.42;101403.84;5044363;28;20079;-70
2020/12/21 11:16:10;;;;;;;18.05;12.00;;;;;;;6.70;73.61;101395.84;5039311;28;20037;-70